createdAt,value
2018-04-27T00:46:21.682Z,2.53
2018-04-27T00:48:54.977Z,2.57
2018-04-27T00:51:28.228Z,3.37
2018-04-27T00:54:01.499Z,2.67
2018-04-27T00:56:34.759Z,2.40
2018-04-27T00:59:08.038Z,2.80
2018-04-27T02:32:40.344Z,2.40
2018-04-27T02:35:13.589Z,2.37
2018-04-27T02:37:46.849Z,2.63
2018-04-27T02:40:20.860Z,2.80
2018-04-27T02:42:54.887Z,2.53
2018-04-27T03:47:17.285Z,2.60
2018-04-27T03:49:50.532Z,2.70
2018-04-27T03:52:23.796Z,2.40
2018-04-27T03:54:57.062Z,2.60
2018-04-27T03:57:30.307Z,2.07
2018-04-27T04:32:34.843Z,2.90
2018-04-27T04:35:08.121Z,2.90
2018-04-27T04:37:41.364Z,2.97
2018-04-27T04:40:14.656Z,3.10
2018-04-27T04:42:47.901Z,3.07
2018-04-27T04:45:21.192Z,3.40
2018-04-27T04:47:54.441Z,2.87
2018-04-27T04:50:27.707Z,3.00
2018-04-27T04:53:01.720Z,2.77
2018-04-27T04:55:35.752Z,3.47
2018-04-27T04:58:09.011Z,3.50
2018-04-27T05:00:43.048Z,3.00
2018-04-27T05:03:16.308Z,3.13
2018-04-27T05:05:49.566Z,3.47
2018-04-27T05:08:22.887Z,2.97
2018-04-27T05:10:56.847Z,3.20
2018-04-27T05:13:30.096Z,3.23
2018-04-27T05:16:03.364Z,3.30
2018-04-27T05:19:09.204Z,3.03
2018-04-27T05:21:42.489Z,3.23
2018-04-27T05:24:15.744Z,3.27
2018-04-27T05:26:49.005Z,3.50
2018-04-27T05:29:22.251Z,3.20
2018-04-27T05:31:56.290Z,3.50
2018-04-27T05:34:29.543Z,3.37
2018-04-27T05:37:02.806Z,3.67
2018-04-27T05:39:36.055Z,3.40
2018-04-27T05:42:09.332Z,3.20
2018-04-27T05:44:42.584Z,3.30
2018-04-27T05:47:15.847Z,3.93
2018-04-27T05:49:49.095Z,3.63
2018-04-27T05:52:23.132Z,3.47
2018-04-27T05:54:56.395Z,3.70
2018-04-27T05:57:29.657Z,3.73
2018-04-27T06:00:02.911Z,3.97
2018-04-27T06:02:36.952Z,3.40
2018-04-27T06:05:10.223Z,3.87
2018-04-27T06:07:43.499Z,3.93
2018-04-27T06:10:16.871Z,3.23
2018-04-27T06:12:50.136Z,3.27
2018-04-27T06:15:23.397Z,4.27
2018-04-27T06:17:56.663Z,3.73
2018-04-27T06:20:29.919Z,3.90
2018-04-27T06:23:03.188Z,3.47
2018-04-27T06:25:36.431Z,3.47
2018-04-27T06:28:09.697Z,3.93
2018-04-27T07:03:15.636Z,3.57
2018-04-27T07:05:48.895Z,3.30
2018-04-27T07:08:22.171Z,2.87
2018-04-27T07:10:55.428Z,3.20
2018-04-27T07:13:28.700Z,3.40
2018-04-27T07:38:47.062Z,3.27
2018-04-27T07:41:20.348Z,2.77
2018-04-27T07:43:53.621Z,3.20
2018-04-27T07:46:26.907Z,3.37
2018-04-27T07:49:00.162Z,3.40
2018-04-27T07:51:33.436Z,3.30
2018-04-27T07:54:07.464Z,3.40
2018-04-27T07:56:40.765Z,3.03
2018-04-27T07:59:14.024Z,3.33
2018-04-27T08:01:47.292Z,2.97
2018-04-27T08:04:20.556Z,2.83
2018-04-27T08:06:53.825Z,3.43
2018-04-27T08:09:27.847Z,3.00
2018-04-27T08:12:01.132Z,2.60
2018-04-27T08:14:35.159Z,3.00
2018-04-27T08:30:10.114Z,3.03
2018-04-27T08:32:43.313Z,2.87
2018-04-27T08:35:16.573Z,2.93
2018-04-27T08:37:49.847Z,3.00
2018-04-27T08:40:23.103Z,2.37
2018-04-27T08:42:56.384Z,2.83
2018-04-27T08:45:30.610Z,2.60
2018-04-27T08:48:04.627Z,2.40
2018-04-27T08:50:37.921Z,2.97
2018-04-27T08:53:11.173Z,2.90
2018-04-27T08:55:44.450Z,2.70
2018-04-27T08:58:17.712Z,2.47
2018-04-27T09:00:51.107Z,2.57
2018-04-27T09:03:24.480Z,2.60
2018-04-27T09:05:58.635Z,2.50
2018-04-27T09:08:32.092Z,2.93
2018-04-27T09:11:05.515Z,2.53
2018-04-27T09:13:38.759Z,2.60
2018-04-27T09:16:38.246Z,2.47
2018-04-27T09:19:11.507Z,2.20
2018-04-27T09:21:44.777Z,1.90
2018-04-27T09:24:18.059Z,2.07
2018-04-27T09:26:52.184Z,2.20
2018-04-27T09:29:25.367Z,2.20
2018-04-27T09:31:59.416Z,1.83
2018-04-27T09:34:32.672Z,1.63
2018-04-27T09:45:05.702Z,2.17
2018-04-27T10:12:26.520Z,2.30
2018-04-27T10:14:59.848Z,2.33
2018-04-27T10:17:33.955Z,2.43
2018-04-27T10:20:07.228Z,1.87
2018-04-27T10:22:40.531Z,2.60
2018-04-27T10:25:13.839Z,1.70
2018-04-27T10:27:47.104Z,2.03
2018-04-27T10:30:20.379Z,2.03
2018-04-27T10:32:53.930Z,2.10
2018-04-27T10:35:27.409Z,1.90
2018-04-27T10:38:00.999Z,2.07
2018-04-27T10:40:36.590Z,1.70
2018-04-27T10:43:10.736Z,2.70
2018-04-27T10:45:45.201Z,2.03
2018-04-27T10:48:18.732Z,2.17
2018-04-27T10:50:52.510Z,1.97
2018-04-27T10:53:26.274Z,1.90
2018-04-27T10:55:59.949Z,2.67
2018-04-27T10:58:34.618Z,2.10
2018-04-27T11:01:09.096Z,1.90
2018-04-27T11:03:43.472Z,2.30
2018-04-27T11:06:17.585Z,2.20
2018-04-27T11:08:51.168Z,2.30
2018-04-27T11:11:24.861Z,2.30
2018-04-27T11:13:58.279Z,2.10
2018-04-27T11:16:32.192Z,2.23
2018-04-27T11:19:05.694Z,2.77
2018-04-27T11:21:39.215Z,2.67
2018-04-27T11:24:12.744Z,2.03
2018-04-27T11:26:47.783Z,2.00
2018-04-27T11:29:21.275Z,2.63
2018-04-27T11:31:55.662Z,2.10
2018-04-27T11:34:29.137Z,2.60
2018-04-27T11:37:02.663Z,2.17
2018-04-27T11:39:36.198Z,2.53
2018-04-27T11:42:09.871Z,2.07
2018-04-27T11:44:43.473Z,2.03
2018-04-27T11:47:17.117Z,2.00
2018-04-27T11:49:50.542Z,1.80
2018-04-27T11:52:24.927Z,1.93
2018-04-27T11:54:59.353Z,2.10
2018-04-27T11:57:32.984Z,1.63
2018-04-27T12:00:08.401Z,1.70
2018-04-27T12:02:43.871Z,2.00
2018-04-27T12:05:18.130Z,2.00
2018-04-27T12:07:52.372Z,2.03
2018-04-27T12:10:27.997Z,2.20
2018-04-27T12:13:02.284Z,1.70
2018-04-27T12:15:35.797Z,1.70
2018-04-27T12:18:10.507Z,1.87
2018-04-27T12:20:44.056Z,1.93
2018-04-27T12:23:18.304Z,1.87
2018-04-27T12:25:52.026Z,2.00
2018-04-27T12:28:26.120Z,2.17
2018-04-27T12:30:59.565Z,2.40
2018-04-27T12:33:32.945Z,2.10
2018-04-27T12:36:06.604Z,2.30
2018-04-27T12:38:40.888Z,2.10
2018-04-27T12:41:14.523Z,1.97
2018-04-27T12:43:48.968Z,2.23
2018-04-27T12:46:23.190Z,1.93
2018-04-27T12:51:36.474Z,1.83
2018-04-27T12:54:09.997Z,1.90
2018-04-27T12:56:43.433Z,2.07
2018-04-27T12:59:16.826Z,1.50
2018-04-27T13:01:50.360Z,1.50
2018-04-27T13:04:24.607Z,1.70
2018-04-27T13:06:58.174Z,1.60
2018-04-27T13:09:31.803Z,2.17
2018-04-27T13:12:05.280Z,1.93
2018-04-27T13:14:39.475Z,2.20
2018-04-27T13:17:13.733Z,1.70
2018-04-27T13:19:49.655Z,2.07
2018-04-27T13:22:23.079Z,2.00
2018-04-27T13:24:56.933Z,1.70
2018-04-27T13:27:30.381Z,2.00
2018-04-27T13:30:05.420Z,1.40
2018-04-27T13:32:39.811Z,2.00
2018-04-27T13:35:13.314Z,2.13
2018-04-27T13:37:46.788Z,1.83
2018-04-27T13:40:20.357Z,1.53
2018-04-27T13:42:54.909Z,1.90
2018-04-27T13:45:28.550Z,1.80
2018-04-27T13:48:02.123Z,1.60
2018-04-27T13:50:35.569Z,2.33
2018-04-27T13:53:09.115Z,1.90
2018-04-27T13:55:42.717Z,1.90
2018-04-27T13:58:17.930Z,2.10
2018-04-27T14:00:52.834Z,2.00
2018-04-27T14:03:27.127Z,1.53
2018-04-27T14:06:00.446Z,1.87
2018-04-27T14:08:33.939Z,1.80
2018-04-27T14:11:07.182Z,1.70
2018-04-27T14:13:41.471Z,1.60
2018-04-27T14:16:14.906Z,1.60
2018-04-27T14:18:48.394Z,1.80
2018-04-27T14:21:21.863Z,1.80
2018-04-27T14:23:56.113Z,1.57
2018-04-27T14:26:29.562Z,2.00
2018-04-27T14:29:03.059Z,1.73
2018-04-27T14:31:37.195Z,2.07
2018-04-27T14:34:11.064Z,1.50
2018-04-27T14:36:45.512Z,1.70
2018-04-27T14:39:19.855Z,1.77
2018-04-27T14:41:54.466Z,1.73
2018-04-27T14:44:28.684Z,1.90
2018-04-27T14:47:02.850Z,1.63
2018-04-27T14:49:36.408Z,1.83
2018-04-27T14:52:09.758Z,1.93
2018-04-27T14:54:43.360Z,1.90
2018-04-27T14:57:18.417Z,1.97
2018-04-27T14:59:52.116Z,1.63
2018-04-27T15:02:26.913Z,1.90
2018-04-27T15:05:01.184Z,1.67
2018-04-27T15:07:34.747Z,1.45
2018-04-27T15:10:08.628Z,1.80
2018-04-27T15:12:42.074Z,2.10
2018-04-27T15:15:15.597Z,1.73
2018-04-27T15:17:48.968Z,1.83
2018-04-27T15:20:22.380Z,1.48
2018-04-27T15:22:55.812Z,1.67
2018-04-27T15:25:29.137Z,1.60
2018-04-27T15:28:02.476Z,1.52
2018-04-27T15:30:35.862Z,2.37
2018-04-27T15:33:09.897Z,1.90
2018-04-27T15:35:44.402Z,1.50
2018-04-27T15:38:18.546Z,2.00
2018-04-27T15:40:51.963Z,2.30
2018-04-27T15:43:25.231Z,1.77
2018-04-27T15:45:58.780Z,2.50
2018-04-27T15:48:32.124Z,1.97
2018-04-27T15:51:06.237Z,1.77
2018-04-27T15:53:39.620Z,1.70
2018-04-27T15:56:12.976Z,2.53
2018-04-27T15:58:46.326Z,2.50
2018-04-27T16:01:19.630Z,2.90
2018-04-27T16:03:52.933Z,1.83
2018-04-27T16:06:26.203Z,2.47
2018-04-27T16:09:00.557Z,2.13
2018-04-27T16:11:33.863Z,2.50
2018-04-27T16:14:07.339Z,3.23
2018-04-27T16:16:40.778Z,3.80
2018-04-27T16:19:14.087Z,2.87
2018-04-27T16:21:48.104Z,2.00
2018-04-27T16:24:22.396Z,2.33
2018-04-27T16:26:55.783Z,2.13
2018-04-27T16:29:29.952Z,1.93
2018-04-27T16:32:04.008Z,2.07
2018-04-27T16:34:37.285Z,2.47
2018-04-27T16:37:10.543Z,2.30
2018-04-27T16:39:44.597Z,2.33
2018-04-27T16:42:17.939Z,2.00
2018-04-27T16:44:51.369Z,1.97
2018-04-27T16:47:26.130Z,3.40
2018-04-27T16:49:59.428Z,2.53
2018-04-27T16:52:32.756Z,2.40
2018-04-27T16:55:06.123Z,2.20
2018-04-27T16:57:39.499Z,2.70
2018-04-27T17:00:12.844Z,2.23
2018-04-27T17:02:46.252Z,3.23
2018-04-27T17:05:20.380Z,3.03
2018-04-27T17:07:54.669Z,2.30
2018-04-27T17:10:28.791Z,1.70
2018-04-27T17:13:02.253Z,2.00
2018-04-27T17:15:35.584Z,1.80
2018-04-27T17:18:09.712Z,2.20
2018-04-27T17:20:43.848Z,2.07
2018-04-27T17:23:18.646Z,1.97
2018-04-27T17:25:52.827Z,2.00
2018-04-27T17:28:26.295Z,1.87
2018-04-27T17:30:59.580Z,2.10
2018-04-27T17:33:32.831Z,1.87
2018-04-27T17:36:06.114Z,1.77
2018-04-27T17:38:40.271Z,1.90
2018-04-27T17:41:13.680Z,1.77
2018-04-27T17:43:47.073Z,2.10
2018-04-27T17:46:23.022Z,1.90
2018-04-27T17:48:56.308Z,2.00
2018-04-27T17:51:30.998Z,1.80
2018-04-27T17:54:05.803Z,1.90
2018-04-27T17:56:39.103Z,2.17
2018-04-27T17:59:15.231Z,2.13
2018-04-27T18:01:48.561Z,1.93
2018-04-27T18:04:21.836Z,2.20
2018-04-27T18:06:55.109Z,2.13
2018-04-27T18:09:28.573Z,2.27
2018-04-27T18:12:02.127Z,2.03
2018-04-27T18:14:35.355Z,2.10
2018-04-27T18:17:08.744Z,1.90
2018-04-27T18:19:42.009Z,2.17
2018-04-27T18:22:15.293Z,2.37
2018-04-27T18:24:48.559Z,2.10
2018-04-27T18:27:21.836Z,2.30
2018-04-27T18:29:55.105Z,2.20
2018-04-27T18:32:28.365Z,2.70
2018-04-27T18:35:02.391Z,2.27
2018-04-27T18:37:35.658Z,2.90
2018-04-27T18:40:08.908Z,3.00
2018-04-27T18:42:42.251Z,2.43
2018-04-27T18:45:15.436Z,2.40
2018-04-27T18:47:49.512Z,2.30
2018-04-27T18:50:22.771Z,3.37
2018-04-27T18:52:56.037Z,5.63
2018-04-27T18:55:29.307Z,3.97
2018-04-27T18:58:02.596Z,3.77
2018-04-27T19:00:40.310Z,3.40
2018-04-27T19:03:15.246Z,3.13
2018-04-27T19:05:48.508Z,2.63
2018-04-27T19:08:22.381Z,2.60
2018-04-27T19:10:55.630Z,2.90
2018-04-27T19:13:28.912Z,2.50
2018-04-27T19:16:02.182Z,2.90
2018-04-27T19:18:35.452Z,2.60
2018-04-27T19:21:08.708Z,3.20
2018-04-27T19:23:42.014Z,3.07
2018-04-27T19:26:17.985Z,3.20
2018-04-27T19:28:51.979Z,2.83
2018-04-27T19:31:25.273Z,3.90
2018-04-27T19:33:58.528Z,4.23
2018-04-27T19:36:31.779Z,3.40
2018-04-27T19:39:06.012Z,3.17
2018-04-27T19:41:39.273Z,2.90
2018-04-27T19:44:12.556Z,3.50
2018-04-27T19:46:45.845Z,3.10
2018-04-27T19:49:19.120Z,3.80
2018-04-27T19:51:52.372Z,3.87
2018-04-27T19:54:25.681Z,3.60
2018-04-27T19:56:59.705Z,4.10
2018-04-27T19:59:33.066Z,3.93
2018-04-27T20:02:07.137Z,3.67
2018-04-27T20:04:40.488Z,4.30
2018-04-27T20:07:13.776Z,4.40
2018-04-27T20:09:52.104Z,3.70
2018-04-27T20:12:25.380Z,4.10
2018-04-27T20:14:58.641Z,4.23
2018-04-27T20:17:37.726Z,3.50
2018-04-27T20:20:15.432Z,4.03
2018-04-27T20:22:50.334Z,4.00
2018-04-27T20:25:24.356Z,3.73
2018-04-27T20:27:57.644Z,3.60
2018-04-27T20:30:32.389Z,3.60
2018-04-27T20:33:06.487Z,3.63
2018-04-27T20:35:39.748Z,3.23
2018-04-27T20:38:16.743Z,3.20
2018-04-27T20:40:50.772Z,3.60
2018-04-27T20:43:24.857Z,3.50
2018-04-27T20:45:58.207Z,3.33
2018-04-27T20:48:31.558Z,3.23
2018-04-27T20:51:14.343Z,3.10
2018-04-27T20:54:02.537Z,3.37
2018-04-27T20:56:43.236Z,2.47
2018-04-27T20:59:16.500Z,3.03
2018-04-27T21:01:49.783Z,3.07
2018-04-27T21:04:23.803Z,3.13
2018-04-27T21:06:57.972Z,3.20
2018-04-27T21:09:31.234Z,3.40
2018-04-27T21:12:04.587Z,2.83
2018-04-27T21:14:38.655Z,3.60
2018-04-27T21:17:11.941Z,3.17
2018-04-27T21:19:45.265Z,3.00
2018-04-27T21:22:18.611Z,3.97
2018-04-27T21:24:51.951Z,3.10
2018-04-27T21:27:26.018Z,3.10
2018-04-27T21:29:59.360Z,3.23
2018-04-27T21:32:32.739Z,3.30
2018-04-27T21:35:06.729Z,3.07
2018-04-27T21:37:45.145Z,3.07
2018-04-27T21:40:18.399Z,3.40
2018-04-27T21:42:52.446Z,3.03
2018-04-27T21:45:25.701Z,3.40
2018-04-27T21:47:58.983Z,2.90
2018-04-27T21:50:32.243Z,3.87
2018-04-27T21:53:05.532Z,3.40
2018-04-27T21:55:38.778Z,3.40
2018-04-27T21:58:13.443Z,3.47
2018-04-27T22:00:46.700Z,3.10
2018-04-27T22:03:20.762Z,3.03
2018-04-27T22:06:02.708Z,3.00
2018-04-27T22:11:47.929Z,3.28
2018-04-27T22:14:32.703Z,3.00
2018-04-27T22:17:10.935Z,3.27
2018-04-27T22:19:44.191Z,3.30
